Fortunia — V2OG3 — position and weather

sailwx.info

Track history (hours):
 
Tides and Currents Weather Stations Pressure Air Temp Water Temp Dewpoint Dewpoint Depression Visibility Wind Speed Wind Dir Waves Ship Positions

Fortunia

Last reported at 2015-Mar-30 15:07 UTC. Time now 2015-Mar-30 16:21 UTC.
Position N 41°20' E 002°11'.

Length 121 m; draft 5.5 m.

Type: Ship. MMSI: 304010638.

Date/timePositionNaut miles runAvg speedWind from/ knotsBaromVisibWave heightAir tempDewpointWater temp
2015-Mar-30 15:07N 41°20' E 002°11'0 0.0
2015-Mar-30 14:31N 41°20' E 002°11'0 0.0
2015-Mar-30 13:25N 41°20' E 002°11'0 0.0
2015-Mar-30 11:18N 41°20' E 002°11'0 0.0
2015-Mar-30 10:23N 41°20' E 002°11'0 0.0
2015-Mar-30 03:20N 41°20' E 002°11'0 0.0
2015-Mar-30 02:32N 41°20' E 002°11'0 0.0
2015-Mar-30 01:32N 41°20' E 002°11'0 0.0
2015-Mar-30 00:19N 41°20' E 002°11'0 0.0
2015-Mar-29 23:25N 41°20' E 002°11'0 0.0
2015-Mar-29 22:24N 41°20' E 002°11'0 0.0
2015-Mar-29 19:29N 41°20' E 002°11'0 0.0
2015-Mar-29 17:28N 41°20' E 002°11'0 0.0
2015-Mar-29 15:33N 41°20' E 002°11'0 0.0
2015-Mar-29 12:26N 41°20' E 002°11'0 0.0
2015-Mar-29 05:23N 41°20' E 002°11'0 0.0
2015-Mar-29 02:16N 41°20' E 002°11'0 0.0
2015-Mar-29 01:33N 41°20' E 002°11'0 0.0
2015-Mar-29 00:33N 41°20' E 002°11'0 0.0
2015-Mar-28 21:07N 41°20' E 002°11'0 0.0
2015-Mar-28 18:07N 41°20' E 002°11'0 0.0
2015-Mar-28 16:29N 41°20' E 002°11'0 0.0
2015-Mar-28 15:14N 41°20' E 002°11'0 0.0
2015-Mar-28 14:04N 41°20' E 002°11'0 0.0
2015-Mar-28 10:21N 41°20' E 002°11'0 0.0
2015-Mar-28 06:31N 41°20' E 002°11'0 0.1
2015-Mar-28 05:12N 41°20' E 002°11'0 0.0
2015-Mar-28 03:18N 41°20' E 002°11'0 0.0
2015-Mar-28 01:29N 41°20' E 002°11'0 0.0
2015-Mar-28 00:22N 41°20' E 002°11'0 0.0
2015-Mar-27 22:29N 41°20' E 002°11'0 0.0
2015-Mar-27 21:33N 41°20' E 002°11'0 0.0
2015-Mar-27 20:21N 41°20' E 002°11'0 0.0
2015-Mar-27 19:32N 41°20' E 002°11'0 0.0
2015-Mar-27 18:28N 41°20' E 002°11'0 0.0
2015-Mar-27 17:31N 41°20' E 002°11'0 0.0
2015-Mar-27 16:31N 41°20' E 002°11'0 0.0
2015-Mar-27 15:22N 41°20' E 002°11'0 0.0
2015-Mar-27 13:30N 41°20' E 002°11'0 0.0
2015-Mar-27 12:29N 41°20' E 002°11'0 0.0
2015-Mar-27 03:07N 41°20' E 002°11'0 0.0
2015-Mar-25 18:33N 41°20' E 002°11'8 7.5
2015-Mar-25 17:28N 41°12' E 002°07'9 9.3
2015-Mar-25 16:33N 41°05' E 001°60'9 9.0
2015-Mar-25 15:33N 40°58' E 001°53'8 8.4
2015-Mar-25 14:33N 40°51' E 001°47'8 8.4
2015-Mar-25 13:33N 40°45' E 001°40'1010.1
2015-Mar-25 12:33N 40°37' E 001°32'1010.0
2015-Mar-25 11:33N 40°29' E 001°23'7 7.4
2015-Mar-25 10:33N 40°25' E 001°15'7 7.2
2015-Mar-25 09:33N 40°21' E 001°07'9 8.6
2015-Mar-25 08:33N 40°16' E 000°58'1110.2
2015-Mar-25 07:29N 40°09' E 000°47'59 9.4
2015-Mar-25 01:17N 39°30' W 000°10'7 9.3
2015-Mar-25 00:33N 39°25' W 000°16'2 2.1
2015-Mar-24 23:33N 39°26' W 000°19'0 0.0
2015-Mar-24 22:33N 39°26' W 000°19'0 0.0
2015-Mar-24 21:32N 39°26' W 000°19'0 0.0
2015-Mar-24 20:32N 39°26' W 000°19'0 0.0
2015-Mar-24 19:31N 39°26' W 000°19'0 0.4
2015-Mar-24 18:33N 39°26' W 000°19'4 3.7
2015-Mar-24 17:31N 39°24' W 000°15'84 7.7
2015-Mar-24 06:32N 38°00' W 000°08'1211.1
2015-Mar-24 05:30N 37°51' W 000°16'1011.1
2015-Mar-24 04:33N 37°42' W 000°23'1110.8
2015-Mar-24 03:33N 37°33' W 000°31'1010.0
2015-Mar-24 02:33N 37°30' W 000°43'1110.9
2015-Mar-24 01:33N 37°32' W 000°56'4 0.6
2015-Mar-23 18:03N 37°36' W 000°59'4 7.0
2015-Mar-23 17:29N 37°32' W 000°57'1010.7
2015-Mar-23 16:33N 37°30' W 000°45'1010.0
2015-Mar-23 15:32N 37°28' W 000°32'  
Track history (hours):
 
Tides and Currents Weather Stations Pressure Air Temp Water Temp Dewpoint Dewpoint Depression Visibility Wind Speed Wind Dir Waves Ship Positions

Fortunia

Last reported at 2015-Mar-30 15:07 UTC. Time now 2015-Mar-30 16:21 UTC.
Position N 41°20' E 002°11'.

Length 121 m; draft 5.5 m.

Type: Ship. MMSI: 304010638.

Date/timePositionNaut miles runAvg speedWind from/ knotsBaromVisibWave heightAir tempDewpointWater temp
2015-Mar-30 15:07N 41°20' E 002°11'0 0.0
2015-Mar-30 14:31N 41°20' E 002°11'0 0.0
2015-Mar-30 13:25N 41°20' E 002°11'0 0.0
2015-Mar-30 11:18N 41°20' E 002°11'0 0.0
2015-Mar-30 10:23N 41°20' E 002°11'0 0.0
2015-Mar-30 03:20N 41°20' E 002°11'0 0.0
2015-Mar-30 02:32N 41°20' E 002°11'0 0.0
2015-Mar-30 01:32N 41°20' E 002°11'0 0.0
2015-Mar-30 00:19N 41°20' E 002°11'0 0.0
2015-Mar-29 23:25N 41°20' E 002°11'0 0.0
2015-Mar-29 22:24N 41°20' E 002°11'0 0.0
2015-Mar-29 19:29N 41°20' E 002°11'0 0.0
2015-Mar-29 17:28N 41°20' E 002°11'0 0.0
2015-Mar-29 15:33N 41°20' E 002°11'0 0.0
2015-Mar-29 12:26N 41°20' E 002°11'0 0.0
2015-Mar-29 05:23N 41°20' E 002°11'0 0.0
2015-Mar-29 02:16N 41°20' E 002°11'0 0.0
2015-Mar-29 01:33N 41°20' E 002°11'0 0.0
2015-Mar-29 00:33N 41°20' E 002°11'0 0.0
2015-Mar-28 21:07N 41°20' E 002°11'0 0.0
2015-Mar-28 18:07N 41°20' E 002°11'0 0.0
2015-Mar-28 16:29N 41°20' E 002°11'0 0.0
2015-Mar-28 15:14N 41°20' E 002°11'0 0.0
2015-Mar-28 14:04N 41°20' E 002°11'0 0.0
2015-Mar-28 10:21N 41°20' E 002°11'0 0.0
2015-Mar-28 06:31N 41°20' E 002°11'0 0.1
2015-Mar-28 05:12N 41°20' E 002°11'0 0.0
2015-Mar-28 03:18N 41°20' E 002°11'0 0.0
2015-Mar-28 01:29N 41°20' E 002°11'0 0.0
2015-Mar-28 00:22N 41°20' E 002°11'0 0.0
2015-Mar-27 22:29N 41°20' E 002°11'0 0.0
2015-Mar-27 21:33N 41°20' E 002°11'0 0.0
2015-Mar-27 20:21N 41°20' E 002°11'0 0.0
2015-Mar-27 19:32N 41°20' E 002°11'0 0.0
2015-Mar-27 18:28N 41°20' E 002°11'0 0.0
2015-Mar-27 17:31N 41°20' E 002°11'0 0.0
2015-Mar-27 16:31N 41°20' E 002°11'0 0.0
2015-Mar-27 15:22N 41°20' E 002°11'0 0.0
2015-Mar-27 13:30N 41°20' E 002°11'0 0.0
2015-Mar-27 12:29N 41°20' E 002°11'0 0.0
2015-Mar-27 03:07N 41°20' E 002°11'0 0.0
2015-Mar-25 18:33N 41°20' E 002°11'8 7.5
2015-Mar-25 17:28N 41°12' E 002°07'9 9.3
2015-Mar-25 16:33N 41°05' E 001°60'9 9.0
2015-Mar-25 15:33N 40°58' E 001°53'8 8.4
2015-Mar-25 14:33N 40°51' E 001°47'8 8.4
2015-Mar-25 13:33N 40°45' E 001°40'1010.1
2015-Mar-25 12:33N 40°37' E 001°32'1010.0
2015-Mar-25 11:33N 40°29' E 001°23'7 7.4
2015-Mar-25 10:33N 40°25' E 001°15'7 7.2
2015-Mar-25 09:33N 40°21' E 001°07'9 8.6
2015-Mar-25 08:33N 40°16' E 000°58'1110.2
2015-Mar-25 07:29N 40°09' E 000°47'59 9.4
2015-Mar-25 01:17N 39°30' W 000°10'7 9.3
2015-Mar-25 00:33N 39°25' W 000°16'2 2.1
2015-Mar-24 23:33N 39°26' W 000°19'0 0.0
2015-Mar-24 22:33N 39°26' W 000°19'0 0.0
2015-Mar-24 21:32N 39°26' W 000°19'0 0.0
2015-Mar-24 20:32N 39°26' W 000°19'0 0.0
2015-Mar-24 19:31N 39°26' W 000°19'0 0.4
2015-Mar-24 18:33N 39°26' W 000°19'4 3.7
2015-Mar-24 17:31N 39°24' W 000°15'84 7.7
2015-Mar-24 06:32N 38°00' W 000°08'1211.1
2015-Mar-24 05:30N 37°51' W 000°16'1011.1
2015-Mar-24 04:33N 37°42' W 000°23'1110.8
2015-Mar-24 03:33N 37°33' W 000°31'1010.0
2015-Mar-24 02:33N 37°30' W 000°43'1110.9
2015-Mar-24 01:33N 37°32' W 000°56'4 0.6
2015-Mar-23 18:03N 37°36' W 000°59'4 7.0
2015-Mar-23 17:29N 37°32' W 000°57'1010.7
2015-Mar-23 16:33N 37°30' W 000°45'1010.0
2015-Mar-23 15:32N 37°28' W 000°32'  

Dump ship's entire track history